sensor_id;sensor_type;location;lat;lon;timestamp;temperature;humidity
13464;DHT22;6804;48.774;9.174;2024-02-23T00:00:25;8.90;99.90
13464;DHT22;6804;48.774;9.174;2024-02-23T00:02:57;8.90;99.90
13464;DHT22;6804;48.774;9.174;2024-02-23T00:05:24;8.90;99.90
13464;DHT22;6804;48.774;9.174;2024-02-23T00:07:51;9.00;99.90
13464;DHT22;6804;48.774;9.174;2024-02-23T00:10:30;9.00;99.90
13464;DHT22;6804;48.774;9.174;2024-02-23T00:12:57;9.00;99.90
13464;DHT22;6804;48.774;9.174;2024-02-23T00:15:28;9.00;99.90
13464;DHT22;6804;48.774;9.174;2024-02-23T00:17:59;9.00;99.90
13464;DHT22;6804;48.774;9.174;2024-02-23T00:20:29;9.00;99.90
13464;DHT22;6804;48.774;9.174;2024-02-23T00:22:56;9.10;99.90
13464;DHT22;6804;48.774;9.174;2024-02-23T00:25:30;9.00;99.90
13464;DHT22;6804;48.774;9.174;2024-02-23T00:27:57;9.10;99.90
13464;DHT22;6804;48.774;9.174;2024-02-23T00:30:25;9.10;99.90
13464;DHT22;6804;48.774;9.174;2024-02-23T00:32:56;9.10;99.90
13464;DHT22;6804;48.774;9.174;2024-02-23T00:35:24;9.10;99.90
13464;DHT22;6804;48.774;9.174;2024-02-23T00:37:51;9.10;99.90
13464;DHT22;6804;48.774;9.174;2024-02-23T00:40:18;9.10;99.90
13464;DHT22;6804;48.774;9.174;2024-02-23T00:42:46;9.10;99.90
13464;DHT22;6804;48.774;9.174;2024-02-23T00:45:13;9.10;99.90
13464;DHT22;6804;48.774;9.174;2024-02-23T00:47:40;9.10;99.90
13464;DHT22;6804;48.774;9.174;2024-02-23T00:50:12;9.10;99.90
13464;DHT22;6804;48.774;9.174;2024-02-23T00:52:39;9.10;99.90
13464;DHT22;6804;48.774;9.174;2024-02-23T00:55:09;9.10;99.90
13464;DHT22;6804;48.774;9.174;2024-02-23T00:57:38;9.10;99.90
13464;DHT22;6804;48.774;9.174;2024-02-23T01:00:10;9.10;99.90
13464;DHT22;6804;48.774;9.174;2024-02-23T01:02:37;9.10;99.90
13464;DHT22;6804;48.774;9.174;2024-02-23T01:05:06;9.10;99.90
13464;DHT22;6804;48.774;9.174;2024-02-23T01:07:37;9.20;99.90
13464;DHT22;6804;48.774;9.174;2024-02-23T01:10:06;9.20;99.90
13464;DHT22;6804;48.774;9.174;2024-02-23T01:12:35;9.20;99.90
13464;DHT22;6804;48.774;9.174;2024-02-23T01:15:06;9.20;99.90
13464;DHT22;6804;48.774;9.174;2024-02-23T01:17:34;9.30;99.90
13464;DHT22;6804;48.774;9.174;2024-02-23T01:20:01;9.20;99.90
13464;DHT22;6804;48.774;9.174;2024-02-23T01:22:31;9.10;99.90
13464;DHT22;6804;48.774;9.174;2024-02-23T01:25:00;9.20;99.90
13464;DHT22;6804;48.774;9.174;2024-02-23T01:27:30;9.20;99.90
13464;DHT22;6804;48.774;9.174;2024-02-23T01:29:57;9.20;99.90
13464;DHT22;6804;48.774;9.174;2024-02-23T01:32:25;9.20;99.90
13464;DHT22;6804;48.774;9.174;2024-02-23T01:34:52;9.20;99.90
13464;DHT22;6804;48.774;9.174;2024-02-23T01:37:22;9.20;99.90
13464;DHT22;6804;48.774;9.174;2024-02-23T01:39:52;9.30;99.90
13464;DHT22;6804;48.774;9.174;2024-02-23T01:42:21;9.20;99.90
13464;DHT22;6804;48.774;9.174;2024-02-23T01:44:52;9.20;99.90
13464;DHT22;6804;48.774;9.174;2024-02-23T01:47:21;9.20;99.90
13464;DHT22;6804;48.774;9.174;2024-02-23T01:49:51;9.10;99.90
13464;DHT22;6804;48.774;9.174;2024-02-23T01:52:20;9.10;99.90
13464;DHT22;6804;48.774;9.174;2024-02-23T01:54:48;9.20;99.90
13464;DHT22;6804;48.774;9.174;2024-02-23T01:57:20;9.20;99.90
13464;DHT22;6804;48.774;9.174;2024-02-23T01:59:48;9.20;99.90
13464;DHT22;6804;48.774;9.174;2024-02-23T02:02:16;9.20;99.90
13464;DHT22;6804;48.774;9.174;2024-02-23T02:04:43;9.20;99.90
13464;DHT22;6804;48.774;9.174;2024-02-23T02:07:11;9.20;99.90
13464;DHT22;6804;48.774;9.174;2024-02-23T02:09:42;9.30;99.90
13464;DHT22;6804;48.774;9.174;2024-02-23T02:12:12;9.20;99.90
13464;DHT22;6804;48.774;9.174;2024-02-23T02:14:41;9.20;99.90
13464;DHT22;6804;48.774;9.174;2024-02-23T02:17:08;9.20;99.90
13464;DHT22;6804;48.774;9.174;2024-02-23T02:19:38;9.30;99.90
13464;DHT22;6804;48.774;9.174;2024-02-23T02:22:05;9.30;99.90
13464;DHT22;6804;48.774;9.174;2024-02-23T02:24:32;9.30;99.90
13464;DHT22;6804;48.774;9.174;2024-02-23T02:27:00;9.20;99.90
13464;DHT22;6804;48.774;9.174;2024-02-23T02:29:30;9.20;99.90
13464;DHT22;6804;48.774;9.174;2024-02-23T02:31:59;9.20;99.90
13464;DHT22;6804;48.774;9.174;2024-02-23T02:34:26;9.20;99.90
13464;DHT22;6804;48.774;9.174;2024-02-23T02:36:54;9.20;99.90
13464;DHT22;6804;48.774;9.174;2024-02-23T02:39:21;9.20;99.90
13464;DHT22;6804;48.774;9.174;2024-02-23T02:41:49;9.20;99.90
13464;DHT22;6804;48.774;9.174;2024-02-23T02:44:16;9.30;99.90
13464;DHT22;6804;48.774;9.174;2024-02-23T02:46:46;9.20;99.90
13464;DHT22;6804;48.774;9.174;2024-02-23T02:49:14;9.10;99.90
13464;DHT22;6804;48.774;9.174;2024-02-23T02:51:42;9.10;99.90
13464;DHT22;6804;48.774;9.174;2024-02-23T02:54:13;9.10;99.90
13464;DHT22;6804;48.774;9.174;2024-02-23T02:56:42;9.10;99.90
13464;DHT22;6804;48.774;9.174;2024-02-23T02:59:10;9.00;99.90
13464;DHT22;6804;48.774;9.174;2024-02-23T03:01:40;9.00;99.90
13464;DHT22;6804;48.774;9.174;2024-02-23T03:04:09;9.00;99.90
13464;DHT22;6804;48.774;9.174;2024-02-23T03:06:41;9.00;99.90
13464;DHT22;6804;48.774;9.174;2024-02-23T03:09:09;9.00;99.90
13464;DHT22;6804;48.774;9.174;2024-02-23T03:11:39;9.00;99.90
13464;DHT22;6804;48.774;9.174;2024-02-23T03:14:07;9.00;99.90
13464;DHT22;6804;48.774;9.174;2024-02-23T03:16:35;9.00;99.90
13464;DHT22;6804;48.774;9.174;2024-02-23T03:19:03;9.00;99.90
13464;DHT22;6804;48.774;9.174;2024-02-23T03:21:30;8.90;99.90
13464;DHT22;6804;48.774;9.174;2024-02-23T03:24:04;8.90;99.90
13464;DHT22;6804;48.774;9.174;2024-02-23T03:26:31;8.80;99.90
13464;DHT22;6804;48.774;9.174;2024-02-23T03:28:59;8.80;99.90
13464;DHT22;6804;48.774;9.174;2024-02-23T03:31:34;8.80;99.90
13464;DHT22;6804;48.774;9.174;2024-02-23T03:34:02;8.80;99.90
13464;DHT22;6804;48.774;9.174;2024-02-23T03:36:33;8.80;99.90
13464;DHT22;6804;48.774;9.174;2024-02-23T03:39:04;8.70;99.90
13464;DHT22;6804;48.774;9.174;2024-02-23T03:41:34;8.80;99.90
13464;DHT22;6804;48.774;9.174;2024-02-23T03:44:03;8.70;99.90
13464;DHT22;6804;48.774;9.174;2024-02-23T03:46:31;8.70;99.90
13464;DHT22;6804;48.774;9.174;2024-02-23T03:48:58;8.80;99.90
13464;DHT22;6804;48.774;9.174;2024-02-23T03:51:26;8.80;99.90
13464;DHT22;6804;48.774;9.174;2024-02-23T03:53:54;8.80;99.90
13464;DHT22;6804;48.774;9.174;2024-02-23T03:56:26;8.80;99.90
13464;DHT22;6804;48.774;9.174;2024-02-23T03:58:56;8.80;99.90
13464;DHT22;6804;48.774;9.174;2024-02-23T04:01:23;8.80;99.90
13464;DHT22;6804;48.774;9.174;2024-02-23T04:03:51;8.80;99.90
13464;DHT22;6804;48.774;9.174;2024-02-23T04:06:18;8.90;99.90
13464;DHT22;6804;48.774;9.174;2024-02-23T04:08:45;8.80;99.90
13464;DHT22;6804;48.774;9.174;2024-02-23T04:11:15;8.70;99.90
13464;DHT22;6804;48.774;9.174;2024-02-23T04:13:46;8.80;99.90
13464;DHT22;6804;48.774;9.174;2024-02-23T04:16:16;8.80;99.90
13464;DHT22;6804;48.774;9.174;2024-02-23T04:18:47;8.80;99.90
13464;DHT22;6804;48.774;9.174;2024-02-23T04:21:14;8.80;99.90
13464;DHT22;6804;48.774;9.174;2024-02-23T04:23:43;8.80;99.90
13464;DHT22;6804;48.774;9.174;2024-02-23T04:26:11;8.70;99.90
13464;DHT22;6804;48.774;9.174;2024-02-23T04:28:39;8.70;99.90
13464;DHT22;6804;48.774;9.174;2024-02-23T04:31:10;8.70;99.90
13464;DHT22;6804;48.774;9.174;2024-02-23T04:33:38;8.70;99.90
13464;DHT22;6804;48.774;9.174;2024-02-23T04:36:06;8.80;99.90
13464;DHT22;6804;48.774;9.174;2024-02-23T04:38:35;8.70;99.90
13464;DHT22;6804;48.774;9.174;2024-02-23T04:41:03;8.70;99.90
13464;DHT22;6804;48.774;9.174;2024-02-23T04:43:36;8.70;99.90
13464;DHT22;6804;48.774;9.174;2024-02-23T04:46:04;8.80;99.90
13464;DHT22;6804;48.774;9.174;2024-02-23T04:48:37;8.80;99.90
13464;DHT22;6804;48.774;9.174;2024-02-23T04:51:08;8.80;99.90
13464;DHT22;6804;48.774;9.174;2024-02-23T04:53:39;8.90;99.90
13464;DHT22;6804;48.774;9.174;2024-02-23T04:56:07;8.90;99.90
13464;DHT22;6804;48.774;9.174;2024-02-23T04:58:37;8.90;99.90
13464;DHT22;6804;48.774;9.174;2024-02-23T05:01:07;8.80;99.90
13464;DHT22;6804;48.774;9.174;2024-02-23T05:03:36;8.80;99.90
13464;DHT22;6804;48.774;9.174;2024-02-23T05:06:04;8.80;99.90
13464;DHT22;6804;48.774;9.174;2024-02-23T05:08:32;8.80;99.90
13464;DHT22;6804;48.774;9.174;2024-02-23T05:10:59;8.80;99.90
13464;DHT22;6804;48.774;9.174;2024-02-23T05:13:26;8.80;99.90
13464;DHT22;6804;48.774;9.174;2024-02-23T05:15:56;8.80;99.90
13464;DHT22;6804;48.774;9.174;2024-02-23T05:18:24;8.80;99.90
13464;DHT22;6804;48.774;9.174;2024-02-23T05:20:55;8.80;99.90
13464;DHT22;6804;48.774;9.174;2024-02-23T05:23:23;8.70;99.90
13464;DHT22;6804;48.774;9.174;2024-02-23T05:25:50;8.70;99.90
13464;DHT22;6804;48.774;9.174;2024-02-23T05:28:19;8.70;99.90
13464;DHT22;6804;48.774;9.174;2024-02-23T05:30:46;8.70;99.90
13464;DHT22;6804;48.774;9.174;2024-02-23T05:33:14;8.60;99.90
13464;DHT22;6804;48.774;9.174;2024-02-23T05:35:49;8.60;99.90
13464;DHT22;6804;48.774;9.174;2024-02-23T05:38:20;8.60;99.90
13464;DHT22;6804;48.774;9.174;2024-02-23T05:40:47;8.70;99.90
13464;DHT22;6804;48.774;9.174;2024-02-23T05:43:15;8.70;99.90
13464;DHT22;6804;48.774;9.174;2024-02-23T05:45:42;8.70;99.90
13464;DHT22;6804;48.774;9.174;2024-02-23T05:48:11;8.70;99.90
13464;DHT22;6804;48.774;9.174;2024-02-23T05:50:38;8.70;99.90
13464;DHT22;6804;48.774;9.174;2024-02-23T05:53:06;8.70;99.90
13464;DHT22;6804;48.774;9.174;2024-02-23T05:55:35;8.70;99.90
13464;DHT22;6804;48.774;9.174;2024-02-23T05:58:02;8.70;99.90
13464;DHT22;6804;48.774;9.174;2024-02-23T06:00:30;8.60;99.90
13464;DHT22;6804;48.774;9.174;2024-02-23T06:02:58;8.50;99.90
13464;DHT22;6804;48.774;9.174;2024-02-23T06:05:25;8.50;99.90
13464;DHT22;6804;48.774;9.174;2024-02-23T06:07:55;8.50;99.90
13464;DHT22;6804;48.774;9.174;2024-02-23T06:10:22;8.50;99.90
13464;DHT22;6804;48.774;9.174;2024-02-23T06:12:52;8.50;99.90
13464;DHT22;6804;48.774;9.174;2024-02-23T06:15:19;8.50;99.90
13464;DHT22;6804;48.774;9.174;2024-02-23T06:17:49;8.50;99.90
13464;DHT22;6804;48.774;9.174;2024-02-23T06:20:17;8.50;99.90
13464;DHT22;6804;48.774;9.174;2024-02-23T06:22:45;8.40;99.90
13464;DHT22;6804;48.774;9.174;2024-02-23T06:25:13;8.40;99.90
13464;DHT22;6804;48.774;9.174;2024-02-23T06:27:40;8.30;99.90
13464;DHT22;6804;48.774;9.174;2024-02-23T06:30:10;8.20;99.90
13464;DHT22;6804;48.774;9.174;2024-02-23T06:32:39;8.20;99.90
13464;DHT22;6804;48.774;9.174;2024-02-23T06:35:10;8.10;99.90
13464;DHT22;6804;48.774;9.174;2024-02-23T06:37:41;8.00;99.90
13464;DHT22;6804;48.774;9.174;2024-02-23T06:40:09;7.90;99.90
13464;DHT22;6804;48.774;9.174;2024-02-23T06:42:36;7.90;99.90
13464;DHT22;6804;48.774;9.174;2024-02-23T06:45:04;8.00;99.90
13464;DHT22;6804;48.774;9.174;2024-02-23T06:47:36;8.10;99.90
13464;DHT22;6804;48.774;9.174;2024-02-23T06:50:06;8.10;99.90
13464;DHT22;6804;48.774;9.174;2024-02-23T06:52:34;8.20;99.90
13464;DHT22;6804;48.774;9.174;2024-02-23T06:55:03;8.30;99.90
13464;DHT22;6804;48.774;9.174;2024-02-23T06:57:36;8.30;99.90
13464;DHT22;6804;48.774;9.174;2024-02-23T07:00:05;8.40;99.90
13464;DHT22;6804;48.774;9.174;2024-02-23T07:02:38;8.50;99.90
13464;DHT22;6804;48.774;9.174;2024-02-23T07:05:06;8.50;99.90
13464;DHT22;6804;48.774;9.174;2024-02-23T07:07:39;8.50;99.90
13464;DHT22;6804;48.774;9.174;2024-02-23T07:10:07;8.50;99.90
13464;DHT22;6804;48.774;9.174;2024-02-23T07:12:39;8.60;99.90
13464;DHT22;6804;48.774;9.174;2024-02-23T07:15:15;8.60;99.90
13464;DHT22;6804;48.774;9.174;2024-02-23T07:17:45;8.60;99.90
13464;DHT22;6804;48.774;9.174;2024-02-23T07:20:13;8.50;99.90
13464;DHT22;6804;48.774;9.174;2024-02-23T07:22:43;8.50;99.90
13464;DHT22;6804;48.774;9.174;2024-02-23T07:25:11;8.50;99.90
13464;DHT22;6804;48.774;9.174;2024-02-23T07:27:41;8.50;99.90
13464;DHT22;6804;48.774;9.174;2024-02-23T07:30:10;8.50;99.90
13464;DHT22;6804;48.774;9.174;2024-02-23T07:32:39;8.50;99.90
13464;DHT22;6804;48.774;9.174;2024-02-23T07:35:11;8.40;99.90
13464;DHT22;6804;48.774;9.174;2024-02-23T07:37:41;8.50;99.90
13464;DHT22;6804;48.774;9.174;2024-02-23T07:40:12;8.50;99.90
13464;DHT22;6804;48.774;9.174;2024-02-23T07:42:39;8.50;99.90
13464;DHT22;6804;48.774;9.174;2024-02-23T07:45:10;8.50;99.90
13464;DHT22;6804;48.774;9.174;2024-02-23T07:47:39;8.50;99.90
13464;DHT22;6804;48.774;9.174;2024-02-23T07:50:19;8.50;99.90
13464;DHT22;6804;48.774;9.174;2024-02-23T07:52:49;8.60;99.90
13464;DHT22;6804;48.774;9.174;2024-02-23T07:55:17;8.60;99.90
13464;DHT22;6804;48.774;9.174;2024-02-23T07:57:44;8.60;99.90
13464;DHT22;6804;48.774;9.174;2024-02-23T08:00:12;8.60;99.90
13464;DHT22;6804;48.774;9.174;2024-02-23T08:02:40;8.70;99.90
13464;DHT22;6804;48.774;9.174;2024-02-23T08:05:08;8.70;99.90
13464;DHT22;6804;48.774;9.174;2024-02-23T08:07:43;8.70;99.90
13464;DHT22;6804;48.774;9.174;2024-02-23T08:10:13;8.70;99.90
13464;DHT22;6804;48.774;9.174;2024-02-23T08:12:44;8.70;99.90
13464;DHT22;6804;48.774;9.174;2024-02-23T08:15:11;8.70;99.90
13464;DHT22;6804;48.774;9.174;2024-02-23T08:17:40;8.70;99.90
13464;DHT22;6804;48.774;9.174;2024-02-23T08:20:12;8.70;99.90
13464;DHT22;6804;48.774;9.174;2024-02-23T08:22:41;8.70;99.90
13464;DHT22;6804;48.774;9.174;2024-02-23T08:25:12;8.70;99.90
13464;DHT22;6804;48.774;9.174;2024-02-23T08:27:41;8.70;99.90
13464;DHT22;6804;48.774;9.174;2024-02-23T08:30:14;8.70;99.90
13464;DHT22;6804;48.774;9.174;2024-02-23T08:32:44;8.70;99.90
13464;DHT22;6804;48.774;9.174;2024-02-23T08:35:14;8.70;99.90
13464;DHT22;6804;48.774;9.174;2024-02-23T08:37:44;8.70;99.90
13464;DHT22;6804;48.774;9.174;2024-02-23T08:40:12;8.70;99.90
13464;DHT22;6804;48.774;9.174;2024-02-23T08:42:44;8.70;99.90
13464;DHT22;6804;48.774;9.174;2024-02-23T08:45:12;8.70;99.90
13464;DHT22;6804;48.774;9.174;2024-02-23T08:47:41;8.70;99.90
13464;DHT22;6804;48.774;9.174;2024-02-23T08:50:09;8.70;99.90
13464;DHT22;6804;48.774;9.174;2024-02-23T08:52:41;8.70;99.90
13464;DHT22;6804;48.774;9.174;2024-02-23T08:55:24;8.70;99.90
13464;DHT22;6804;48.774;9.174;2024-02-23T08:57:54;8.70;99.90
13464;DHT22;6804;48.774;9.174;2024-02-23T09:00:25;8.70;99.90
13464;DHT22;6804;48.774;9.174;2024-02-23T09:02:52;8.60;99.90
13464;DHT22;6804;48.774;9.174;2024-02-23T09:05:21;8.70;99.90
13464;DHT22;6804;48.774;9.174;2024-02-23T09:07:52;8.70;99.90
13464;DHT22;6804;48.774;9.174;2024-02-23T09:10:21;8.70;99.90
13464;DHT22;6804;48.774;9.174;2024-02-23T09:12:54;8.60;99.90
13464;DHT22;6804;48.774;9.174;2024-02-23T09:15:21;8.70;99.90
13464;DHT22;6804;48.774;9.174;2024-02-23T09:17:52;8.60;99.90
13464;DHT22;6804;48.774;9.174;2024-02-23T09:20:22;8.60;99.90
13464;DHT22;6804;48.774;9.174;2024-02-23T09:22:55;8.60;99.90
13464;DHT22;6804;48.774;9.174;2024-02-23T09:25:27;8.60;99.90
13464;DHT22;6804;48.774;9.174;2024-02-23T09:27:57;8.60;99.90
13464;DHT22;6804;48.774;9.174;2024-02-23T09:30:25;8.60;99.90
13464;DHT22;6804;48.774;9.174;2024-02-23T09:32:55;8.60;99.90
13464;DHT22;6804;48.774;9.174;2024-02-23T09:35:24;8.60;99.90
13464;DHT22;6804;48.774;9.174;2024-02-23T09:37:52;8.70;99.90
13464;DHT22;6804;48.774;9.174;2024-02-23T09:40:21;8.70;99.90
13464;DHT22;6804;48.774;9.174;2024-02-23T09:42:57;8.70;99.90
13464;DHT22;6804;48.774;9.174;2024-02-23T09:45:26;8.80;99.90
13464;DHT22;6804;48.774;9.174;2024-02-23T09:47:57;8.80;99.90
13464;DHT22;6804;48.774;9.174;2024-02-23T09:50:25;8.90;99.90
13464;DHT22;6804;48.774;9.174;2024-02-23T09:52:58;8.90;99.90
13464;DHT22;6804;48.774;9.174;2024-02-23T09:55:26;9.00;99.90
13464;DHT22;6804;48.774;9.174;2024-02-23T09:57:58;9.10;99.90
13464;DHT22;6804;48.774;9.174;2024-02-23T10:00:34;9.10;99.90
13464;DHT22;6804;48.774;9.174;2024-02-23T10:03:09;9.30;99.90
13464;DHT22;6804;48.774;9.174;2024-02-23T10:05:37;9.50;99.90
13464;DHT22;6804;48.774;9.174;2024-02-23T10:08:05;9.60;99.90
13464;DHT22;6804;48.774;9.174;2024-02-23T10:10:35;9.70;99.90
13464;DHT22;6804;48.774;9.174;2024-02-23T10:13:06;9.80;99.90
13464;DHT22;6804;48.774;9.174;2024-02-23T10:15:34;9.70;99.90
13464;DHT22;6804;48.774;9.174;2024-02-23T10:18:02;9.60;99.90
13464;DHT22;6804;48.774;9.174;2024-02-23T10:20:32;9.50;99.90
13464;DHT22;6804;48.774;9.174;2024-02-23T10:23:04;9.40;99.90
13464;DHT22;6804;48.774;9.174;2024-02-23T10:25:34;9.40;99.90
13464;DHT22;6804;48.774;9.174;2024-02-23T10:28:06;9.40;99.90
13464;DHT22;6804;48.774;9.174;2024-02-23T10:30:38;9.40;99.90
13464;DHT22;6804;48.774;9.174;2024-02-23T10:33:13;9.50;99.90
13464;DHT22;6804;48.774;9.174;2024-02-23T10:35:46;9.50;99.90
13464;DHT22;6804;48.774;9.174;2024-02-23T10:38:17;9.50;99.90
13464;DHT22;6804;48.774;9.174;2024-02-23T10:40:47;9.60;99.90
13464;DHT22;6804;48.774;9.174;2024-02-23T10:43:19;9.60;99.90
13464;DHT22;6804;48.774;9.174;2024-02-23T10:45:47;9.60;99.90
13464;DHT22;6804;48.774;9.174;2024-02-23T10:48:18;9.70;99.90
13464;DHT22;6804;48.774;9.174;2024-02-23T10:50:46;9.70;99.90
13464;DHT22;6804;48.774;9.174;2024-02-23T10:53:14;9.80;99.90
13464;DHT22;6804;48.774;9.174;2024-02-23T10:55:52;9.90;99.90
13464;DHT22;6804;48.774;9.174;2024-02-23T10:58:28;9.90;99.90
13464;DHT22;6804;48.774;9.174;2024-02-23T11:01:00;9.90;99.90
13464;DHT22;6804;48.774;9.174;2024-02-23T11:03:29;9.90;99.90
13464;DHT22;6804;48.774;9.174;2024-02-23T11:05:57;9.90;99.90
13464;DHT22;6804;48.774;9.174;2024-02-23T11:08:28;9.90;99.90
13464;DHT22;6804;48.774;9.174;2024-02-23T11:11:07;10.00;99.90
13464;DHT22;6804;48.774;9.174;2024-02-23T11:13:44;10.00;99.90
13464;DHT22;6804;48.774;9.174;2024-02-23T11:16:26;10.00;99.90
13464;DHT22;6804;48.774;9.174;2024-02-23T11:19:04;10.20;99.90
13464;DHT22;6804;48.774;9.174;2024-02-23T11:21:35;10.20;99.90
13464;DHT22;6804;48.774;9.174;2024-02-23T11:24:04;10.20;99.90
13464;DHT22;6804;48.774;9.174;2024-02-23T11:26:31;10.20;99.90
13464;DHT22;6804;48.774;9.174;2024-02-23T11:29:10;10.10;99.90
13464;DHT22;6804;48.774;9.174;2024-02-23T11:31:46;10.00;99.90
13464;DHT22;6804;48.774;9.174;2024-02-23T11:34:13;10.00;99.90
13464;DHT22;6804;48.774;9.174;2024-02-23T11:36:53;10.00;99.90
13464;DHT22;6804;48.774;9.174;2024-02-23T11:39:22;10.00;99.90
13464;DHT22;6804;48.774;9.174;2024-02-23T11:41:52;10.10;99.90
13464;DHT22;6804;48.774;9.174;2024-02-23T11:44:28;10.10;99.90
13464;DHT22;6804;48.774;9.174;2024-02-23T11:46:55;10.10;99.90
13464;DHT22;6804;48.774;9.174;2024-02-23T11:49:27;10.10;99.90
13464;DHT22;6804;48.774;9.174;2024-02-23T11:51:56;10.10;99.90
13464;DHT22;6804;48.774;9.174;2024-02-23T11:54:24;10.10;99.90
13464;DHT22;6804;48.774;9.174;2024-02-23T11:56:52;10.10;99.90
13464;DHT22;6804;48.774;9.174;2024-02-23T11:59:28;10.00;99.90
13464;DHT22;6804;48.774;9.174;2024-02-23T12:01:56;10.10;99.90
13464;DHT22;6804;48.774;9.174;2024-02-23T12:04:34;10.10;99.90
13464;DHT22;6804;48.774;9.174;2024-02-23T12:07:05;10.00;99.90
13464;DHT22;6804;48.774;9.174;2024-02-23T12:09:37;10.10;99.90
13464;DHT22;6804;48.774;9.174;2024-02-23T12:12:10;10.20;99.90
13464;DHT22;6804;48.774;9.174;2024-02-23T12:14:42;10.10;99.90
13464;DHT22;6804;48.774;9.174;2024-02-23T12:17:09;10.20;99.90
13464;DHT22;6804;48.774;9.174;2024-02-23T12:19:38;10.20;99.90
13464;DHT22;6804;48.774;9.174;2024-02-23T12:22:12;10.30;99.90
13464;DHT22;6804;48.774;9.174;2024-02-23T12:24:41;10.30;99.90
13464;DHT22;6804;48.774;9.174;2024-02-23T12:27:08;10.40;99.90
13464;DHT22;6804;48.774;9.174;2024-02-23T12:29:36;10.40;99.90
13464;DHT22;6804;48.774;9.174;2024-02-23T12:32:07;10.40;99.90
13464;DHT22;6804;48.774;9.174;2024-02-23T12:34:39;10.40;99.90
13464;DHT22;6804;48.774;9.174;2024-02-23T12:37:08;10.40;99.90
13464;DHT22;6804;48.774;9.174;2024-02-23T12:39:41;10.50;99.90
13464;DHT22;6804;48.774;9.174;2024-02-23T12:42:09;10.50;99.90
13464;DHT22;6804;48.774;9.174;2024-02-23T12:44:36;10.50;99.90
13464;DHT22;6804;48.774;9.174;2024-02-23T12:47:08;10.50;99.90
13464;DHT22;6804;48.774;9.174;2024-02-23T12:49:42;10.50;99.90
13464;DHT22;6804;48.774;9.174;2024-02-23T12:52:11;10.50;99.90
13464;DHT22;6804;48.774;9.174;2024-02-23T12:54:42;10.40;99.90
13464;DHT22;6804;48.774;9.174;2024-02-23T12:57:11;10.40;99.90
13464;DHT22;6804;48.774;9.174;2024-02-23T12:59:41;10.30;99.90
13464;DHT22;6804;48.774;9.174;2024-02-23T13:02:12;10.20;99.90
13464;DHT22;6804;48.774;9.174;2024-02-23T13:04:42;10.20;99.90
13464;DHT22;6804;48.774;9.174;2024-02-23T13:07:18;10.20;99.90
13464;DHT22;6804;48.774;9.174;2024-02-23T13:09:46;10.20;99.90
13464;DHT22;6804;48.774;9.174;2024-02-23T13:12:15;10.20;99.90
13464;DHT22;6804;48.774;9.174;2024-02-23T13:14:48;10.20;99.90
13464;DHT22;6804;48.774;9.174;2024-02-23T13:17:22;10.20;99.90
13464;DHT22;6804;48.774;9.174;2024-02-23T13:19:51;10.40;99.90
13464;DHT22;6804;48.774;9.174;2024-02-23T13:22:21;10.50;99.90
13464;DHT22;6804;48.774;9.174;2024-02-23T13:24:49;10.50;99.90
13464;DHT22;6804;48.774;9.174;2024-02-23T13:27:17;10.50;99.90
13464;DHT22;6804;48.774;9.174;2024-02-23T13:29:44;10.50;99.90
13464;DHT22;6804;48.774;9.174;2024-02-23T13:32:12;10.50;99.90
13464;DHT22;6804;48.774;9.174;2024-02-23T13:34:44;10.50;99.90
13464;DHT22;6804;48.774;9.174;2024-02-23T13:37:19;10.50;99.90
13464;DHT22;6804;48.774;9.174;2024-02-23T13:39:55;10.40;99.90
13464;DHT22;6804;48.774;9.174;2024-02-23T13:42:24;10.40;99.90
13464;DHT22;6804;48.774;9.174;2024-02-23T13:44:51;10.40;99.90
13464;DHT22;6804;48.774;9.174;2024-02-23T13:47:19;10.40;99.90
13464;DHT22;6804;48.774;9.174;2024-02-23T13:49:50;10.40;99.90
13464;DHT22;6804;48.774;9.174;2024-02-23T13:52:18;10.50;99.90
13464;DHT22;6804;48.774;9.174;2024-02-23T13:54:50;10.60;99.90
13464;DHT22;6804;48.774;9.174;2024-02-23T13:57:17;10.60;99.90
13464;DHT22;6804;48.774;9.174;2024-02-23T13:59:45;10.60;99.90
13464;DHT22;6804;48.774;9.174;2024-02-23T14:02:14;10.60;99.90
13464;DHT22;6804;48.774;9.174;2024-02-23T14:04:41;10.60;99.90
13464;DHT22;6804;48.774;9.174;2024-02-23T14:07:17;10.60;99.90
13464;DHT22;6804;48.774;9.174;2024-02-23T14:09:47;10.50;99.90
13464;DHT22;6804;48.774;9.174;2024-02-23T14:12:14;10.60;99.90
13464;DHT22;6804;48.774;9.174;2024-02-23T14:14:41;10.50;99.90
13464;DHT22;6804;48.774;9.174;2024-02-23T14:17:14;10.50;99.90
13464;DHT22;6804;48.774;9.174;2024-02-23T14:19:45;10.60;99.90
13464;DHT22;6804;48.774;9.174;2024-02-23T14:22:14;10.70;99.90
13464;DHT22;6804;48.774;9.174;2024-02-23T14:24:44;10.70;99.90
13464;DHT22;6804;48.774;9.174;2024-02-23T14:27:13;10.70;99.90
13464;DHT22;6804;48.774;9.174;2024-02-23T14:29:43;10.70;99.90
13464;DHT22;6804;48.774;9.174;2024-02-23T14:32:16;10.80;99.90
13464;DHT22;6804;48.774;9.174;2024-02-23T14:34:44;10.80;99.90
13464;DHT22;6804;48.774;9.174;2024-02-23T14:37:12;10.70;99.90
13464;DHT22;6804;48.774;9.174;2024-02-23T14:39:43;10.60;99.90
13464;DHT22;6804;48.774;9.174;2024-02-23T14:42:12;10.60;99.90
13464;DHT22;6804;48.774;9.174;2024-02-23T14:44:39;10.60;99.90
13464;DHT22;6804;48.774;9.174;2024-02-23T14:47:12;10.60;99.90
13464;DHT22;6804;48.774;9.174;2024-02-23T14:49:41;10.70;99.90
13464;DHT22;6804;48.774;9.174;2024-02-23T14:52:09;10.70;99.90
13464;DHT22;6804;48.774;9.174;2024-02-23T14:54:44;10.70;99.90
13464;DHT22;6804;48.774;9.174;2024-02-23T14:57:15;10.70;99.90
13464;DHT22;6804;48.774;9.174;2024-02-23T14:59:42;10.70;99.90
13464;DHT22;6804;48.774;9.174;2024-02-23T15:02:25;10.70;99.90
13464;DHT22;6804;48.774;9.174;2024-02-23T15:04:56;10.70;99.90
13464;DHT22;6804;48.774;9.174;2024-02-23T15:07:23;10.70;99.90
13464;DHT22;6804;48.774;9.174;2024-02-23T15:09:52;10.70;99.90
13464;DHT22;6804;48.774;9.174;2024-02-23T15:12:20;10.60;99.90
13464;DHT22;6804;48.774;9.174;2024-02-23T15:14:53;10.60;99.90
13464;DHT22;6804;48.774;9.174;2024-02-23T15:17:24;10.60;99.90
13464;DHT22;6804;48.774;9.174;2024-02-23T15:19:57;10.60;99.90
13464;DHT22;6804;48.774;9.174;2024-02-23T15:22:26;10.60;99.90
13464;DHT22;6804;48.774;9.174;2024-02-23T15:24:56;10.60;99.90
13464;DHT22;6804;48.774;9.174;2024-02-23T15:27:25;10.60;99.90
13464;DHT22;6804;48.774;9.174;2024-02-23T15:29:54;10.60;99.90
13464;DHT22;6804;48.774;9.174;2024-02-23T15:32:23;10.60;99.90
13464;DHT22;6804;48.774;9.174;2024-02-23T15:34:51;10.60;99.90
13464;DHT22;6804;48.774;9.174;2024-02-23T15:37:22;10.60;99.90
13464;DHT22;6804;48.774;9.174;2024-02-23T15:39:52;10.60;99.90
13464;DHT22;6804;48.774;9.174;2024-02-23T15:42:24;10.60;99.90
13464;DHT22;6804;48.774;9.174;2024-02-23T15:44:52;10.60;99.90
13464;DHT22;6804;48.774;9.174;2024-02-23T15:47:25;10.60;99.90
13464;DHT22;6804;48.774;9.174;2024-02-23T15:49:55;10.60;99.90
13464;DHT22;6804;48.774;9.174;2024-02-23T15:52:26;10.60;99.90
13464;DHT22;6804;48.774;9.174;2024-02-23T15:54:56;10.50;99.90
13464;DHT22;6804;48.774;9.174;2024-02-23T15:57:27;10.60;99.90
13464;DHT22;6804;48.774;9.174;2024-02-23T15:59:55;10.50;99.90
13464;DHT22;6804;48.774;9.174;2024-02-23T16:02:22;10.50;99.90
13464;DHT22;6804;48.774;9.174;2024-02-23T16:04:55;10.60;99.90
13464;DHT22;6804;48.774;9.174;2024-02-23T16:07:25;10.60;99.90
13464;DHT22;6804;48.774;9.174;2024-02-23T16:09:53;10.60;99.90
13464;DHT22;6804;48.774;9.174;2024-02-23T16:12:20;10.60;99.90